sensor_id;sensor_type;location;lat;lon;timestamp;temperature;humidity
6333;DHT22;3199;49.102;8.856;2023-07-31T00:00:45;17.20;99.90
6333;DHT22;3199;49.102;8.856;2023-07-31T00:03:12;17.20;99.90
6333;DHT22;3199;49.102;8.856;2023-07-31T00:05:37;17.10;99.90
6333;DHT22;3199;49.102;8.856;2023-07-31T00:08:03;17.10;99.90
6333;DHT22;3199;49.102;8.856;2023-07-31T00:10:28;17.20;99.90
6333;DHT22;3199;49.102;8.856;2023-07-31T00:12:54;17.10;99.90
6333;DHT22;3199;49.102;8.856;2023-07-31T00:15:19;17.10;99.90
6333;DHT22;3199;49.102;8.856;2023-07-31T00:17:45;17.10;99.90
6333;DHT22;3199;49.102;8.856;2023-07-31T00:20:11;17.10;99.90
6333;DHT22;3199;49.102;8.856;2023-07-31T00:22:36;17.10;99.90
6333;DHT22;3199;49.102;8.856;2023-07-31T00:25:02;17.10;99.90
6333;DHT22;3199;49.102;8.856;2023-07-31T00:27:27;17.10;99.90
6333;DHT22;3199;49.102;8.856;2023-07-31T00:29:53;17.10;99.90
6333;DHT22;3199;49.102;8.856;2023-07-31T00:32:18;17.10;99.90
6333;DHT22;3199;49.102;8.856;2023-07-31T00:34:44;17.20;99.90
6333;DHT22;3199;49.102;8.856;2023-07-31T00:37:09;17.20;99.90
6333;DHT22;3199;49.102;8.856;2023-07-31T00:39:35;17.20;99.90
6333;DHT22;3199;49.102;8.856;2023-07-31T00:42:03;17.20;99.90
6333;DHT22;3199;49.102;8.856;2023-07-31T00:44:28;17.20;99.90
6333;DHT22;3199;49.102;8.856;2023-07-31T00:46:54;17.20;99.90
6333;DHT22;3199;49.102;8.856;2023-07-31T00:49:22;17.20;99.90
6333;DHT22;3199;49.102;8.856;2023-07-31T00:51:47;17.10;99.90
6333;DHT22;3199;49.102;8.856;2023-07-31T00:54:13;17.10;99.90
6333;DHT22;3199;49.102;8.856;2023-07-31T00:56:40;17.00;99.90
6333;DHT22;3199;49.102;8.856;2023-07-31T00:59:06;17.00;99.90
6333;DHT22;3199;49.102;8.856;2023-07-31T01:01:31;17.00;99.90
6333;DHT22;3199;49.102;8.856;2023-07-31T01:03:57;16.90;99.90
6333;DHT22;3199;49.102;8.856;2023-07-31T01:09:29;16.90;99.90
6333;DHT22;3199;49.102;8.856;2023-07-31T01:12:03;16.90;99.90
6333;DHT22;3199;49.102;8.856;2023-07-31T01:14:29;16.90;99.90
6333;DHT22;3199;49.102;8.856;2023-07-31T01:16:55;16.90;99.90
6333;DHT22;3199;49.102;8.856;2023-07-31T01:19:25;16.90;99.90
6333;DHT22;3199;49.102;8.856;2023-07-31T01:27:35;16.90;99.90
6333;DHT22;3199;49.102;8.856;2023-07-31T01:30:11;16.90;99.90
6333;DHT22;3199;49.102;8.856;2023-07-31T01:32:42;16.90;99.90
6333;DHT22;3199;49.102;8.856;2023-07-31T01:35:08;16.80;99.90
6333;DHT22;3199;49.102;8.856;2023-07-31T01:37:34;16.80;99.90
6333;DHT22;3199;49.102;8.856;2023-07-31T01:40:00;16.80;99.90
6333;DHT22;3199;49.102;8.856;2023-07-31T01:42:25;16.90;99.90
6333;DHT22;3199;49.102;8.856;2023-07-31T01:44:51;16.90;99.90
6333;DHT22;3199;49.102;8.856;2023-07-31T01:47:16;16.90;99.90
6333;DHT22;3199;49.102;8.856;2023-07-31T01:49:42;16.90;99.90
6333;DHT22;3199;49.102;8.856;2023-07-31T01:52:07;16.90;99.90
6333;DHT22;3199;49.102;8.856;2023-07-31T01:54:33;16.90;99.90
6333;DHT22;3199;49.102;8.856;2023-07-31T01:56:59;16.90;99.90
6333;DHT22;3199;49.102;8.856;2023-07-31T01:59:24;16.90;99.90
6333;DHT22;3199;49.102;8.856;2023-07-31T02:01:50;16.90;99.90
6333;DHT22;3199;49.102;8.856;2023-07-31T02:04:15;16.90;99.90
6333;DHT22;3199;49.102;8.856;2023-07-31T02:06:41;16.90;99.90
6333;DHT22;3199;49.102;8.856;2023-07-31T02:09:07;16.90;99.90
6333;DHT22;3199;49.102;8.856;2023-07-31T02:11:32;16.90;99.90
6333;DHT22;3199;49.102;8.856;2023-07-31T02:13:58;16.90;99.90
6333;DHT22;3199;49.102;8.856;2023-07-31T02:16:23;16.90;99.90
6333;DHT22;3199;49.102;8.856;2023-07-31T02:18:49;16.90;99.90
6333;DHT22;3199;49.102;8.856;2023-07-31T02:21:14;16.80;99.90
6333;DHT22;3199;49.102;8.856;2023-07-31T02:23:40;16.90;99.90
6333;DHT22;3199;49.102;8.856;2023-07-31T02:26:06;16.90;99.90
6333;DHT22;3199;49.102;8.856;2023-07-31T02:28:31;16.90;99.90
6333;DHT22;3199;49.102;8.856;2023-07-31T02:30:57;16.80;99.90
6333;DHT22;3199;49.102;8.856;2023-07-31T02:33:22;16.90;99.90
6333;DHT22;3199;49.102;8.856;2023-07-31T02:35:48;16.80;99.90
6333;DHT22;3199;49.102;8.856;2023-07-31T02:38:13;16.80;99.90
6333;DHT22;3199;49.102;8.856;2023-07-31T02:40:39;16.80;99.90
6333;DHT22;3199;49.102;8.856;2023-07-31T02:43:07;16.90;99.90
6333;DHT22;3199;49.102;8.856;2023-07-31T02:45:32;16.80;99.90
6333;DHT22;3199;49.102;8.856;2023-07-31T02:47:58;16.80;99.90
6333;DHT22;3199;49.102;8.856;2023-07-31T02:50:23;16.80;99.90
6333;DHT22;3199;49.102;8.856;2023-07-31T02:52:49;16.80;99.90
6333;DHT22;3199;49.102;8.856;2023-07-31T02:55:14;16.90;99.90
6333;DHT22;3199;49.102;8.856;2023-07-31T02:57:40;16.90;99.90
6333;DHT22;3199;49.102;8.856;2023-07-31T03:00:06;16.90;99.90
6333;DHT22;3199;49.102;8.856;2023-07-31T03:02:32;16.90;99.90
6333;DHT22;3199;49.102;8.856;2023-07-31T03:04:58;16.80;99.90
6333;DHT22;3199;49.102;8.856;2023-07-31T03:07:23;16.80;99.90
6333;DHT22;3199;49.102;8.856;2023-07-31T03:09:49;16.80;99.90
6333;DHT22;3199;49.102;8.856;2023-07-31T03:12:14;16.80;99.90
6333;DHT22;3199;49.102;8.856;2023-07-31T03:14:40;16.80;99.90
6333;DHT22;3199;49.102;8.856;2023-07-31T03:17:06;16.80;99.90
6333;DHT22;3199;49.102;8.856;2023-07-31T03:19:32;16.80;99.90
6333;DHT22;3199;49.102;8.856;2023-07-31T03:21:58;16.70;99.90
6333;DHT22;3199;49.102;8.856;2023-07-31T03:24:24;16.70;99.90
6333;DHT22;3199;49.102;8.856;2023-07-31T03:26:50;16.60;99.90
6333;DHT22;3199;49.102;8.856;2023-07-31T03:29:15;16.60;99.90
6333;DHT22;3199;49.102;8.856;2023-07-31T03:31:41;16.60;99.90
6333;DHT22;3199;49.102;8.856;2023-07-31T03:34:06;16.60;99.90
6333;DHT22;3199;49.102;8.856;2023-07-31T03:36:32;16.50;99.90
6333;DHT22;3199;49.102;8.856;2023-07-31T03:38:58;16.50;99.90
6333;DHT22;3199;49.102;8.856;2023-07-31T03:41:23;16.50;99.90
6333;DHT22;3199;49.102;8.856;2023-07-31T03:43:50;16.50;99.90
6333;DHT22;3199;49.102;8.856;2023-07-31T03:46:21;16.50;99.90
6333;DHT22;3199;49.102;8.856;2023-07-31T03:48:47;16.50;99.90
6333;DHT22;3199;49.102;8.856;2023-07-31T03:51:13;16.40;99.90
6333;DHT22;3199;49.102;8.856;2023-07-31T03:53:39;16.40;99.90
6333;DHT22;3199;49.102;8.856;2023-07-31T03:56:04;16.40;99.90
6333;DHT22;3199;49.102;8.856;2023-07-31T03:58:30;16.40;99.90
6333;DHT22;3199;49.102;8.856;2023-07-31T04:00:55;16.40;99.90
6333;DHT22;3199;49.102;8.856;2023-07-31T04:03:21;16.30;99.90
6333;DHT22;3199;49.102;8.856;2023-07-31T04:05:46;16.30;99.90
6333;DHT22;3199;49.102;8.856;2023-07-31T04:08:12;16.30;99.90
6333;DHT22;3199;49.102;8.856;2023-07-31T04:10:37;16.30;99.90
6333;DHT22;3199;49.102;8.856;2023-07-31T04:13:03;16.40;99.90
6333;DHT22;3199;49.102;8.856;2023-07-31T04:15:28;16.40;99.90
6333;DHT22;3199;49.102;8.856;2023-07-31T04:17:54;16.40;99.90
6333;DHT22;3199;49.102;8.856;2023-07-31T04:20:19;16.40;99.90
6333;DHT22;3199;49.102;8.856;2023-07-31T04:22:45;16.40;99.90
6333;DHT22;3199;49.102;8.856;2023-07-31T04:25:10;16.50;99.90
6333;DHT22;3199;49.102;8.856;2023-07-31T04:27:36;16.50;99.90
6333;DHT22;3199;49.102;8.856;2023-07-31T04:30:01;16.60;99.90
6333;DHT22;3199;49.102;8.856;2023-07-31T04:32:27;16.60;99.90
6333;DHT22;3199;49.102;8.856;2023-07-31T04:34:54;16.60;99.90
6333;DHT22;3199;49.102;8.856;2023-07-31T04:37:19;16.70;99.90
6333;DHT22;3199;49.102;8.856;2023-07-31T04:39:45;16.70;99.90
6333;DHT22;3199;49.102;8.856;2023-07-31T04:42:10;16.70;99.90
6333;DHT22;3199;49.102;8.856;2023-07-31T04:44:36;16.80;99.90
6333;DHT22;3199;49.102;8.856;2023-07-31T04:47:01;16.80;99.90
6333;DHT22;3199;49.102;8.856;2023-07-31T04:49:27;16.80;99.90
6333;DHT22;3199;49.102;8.856;2023-07-31T04:51:53;16.80;99.90
6333;DHT22;3199;49.102;8.856;2023-07-31T04:54:18;16.80;99.90
6333;DHT22;3199;49.102;8.856;2023-07-31T04:56:44;16.90;99.90
6333;DHT22;3199;49.102;8.856;2023-07-31T04:59:09;16.90;99.90
6333;DHT22;3199;49.102;8.856;2023-07-31T05:01:35;16.90;99.90
6333;DHT22;3199;49.102;8.856;2023-07-31T05:04:00;16.90;99.90
6333;DHT22;3199;49.102;8.856;2023-07-31T05:06:26;17.00;99.90
6333;DHT22;3199;49.102;8.856;2023-07-31T05:08:52;17.00;99.90
6333;DHT22;3199;49.102;8.856;2023-07-31T05:11:17;17.00;99.90
6333;DHT22;3199;49.102;8.856;2023-07-31T05:13:43;17.10;99.90
6333;DHT22;3199;49.102;8.856;2023-07-31T05:16:08;17.10;99.90
6333;DHT22;3199;49.102;8.856;2023-07-31T05:18:34;17.10;99.90
6333;DHT22;3199;49.102;8.856;2023-07-31T05:20:59;17.20;99.90
6333;DHT22;3199;49.102;8.856;2023-07-31T05:23:25;17.20;99.90
6333;DHT22;3199;49.102;8.856;2023-07-31T05:25:50;17.30;99.90
6333;DHT22;3199;49.102;8.856;2023-07-31T05:28:16;17.30;99.90
6333;DHT22;3199;49.102;8.856;2023-07-31T05:30:41;17.40;99.90
6333;DHT22;3199;49.102;8.856;2023-07-31T05:33:07;17.50;99.90
6333;DHT22;3199;49.102;8.856;2023-07-31T05:35:32;17.60;99.90
6333;DHT22;3199;49.102;8.856;2023-07-31T05:37:58;17.60;99.90
6333;DHT22;3199;49.102;8.856;2023-07-31T05:40:23;17.80;99.90
6333;DHT22;3199;49.102;8.856;2023-07-31T05:42:49;17.80;99.90
6333;DHT22;3199;49.102;8.856;2023-07-31T05:45:14;17.80;99.90
6333;DHT22;3199;49.102;8.856;2023-07-31T05:47:40;17.90;99.90
6333;DHT22;3199;49.102;8.856;2023-07-31T05:50:06;17.90;99.90
6333;DHT22;3199;49.102;8.856;2023-07-31T05:52:31;18.00;99.90
6333;DHT22;3199;49.102;8.856;2023-07-31T05:54:57;18.20;99.90
6333;DHT22;3199;49.102;8.856;2023-07-31T05:57:22;18.40;99.90
6333;DHT22;3199;49.102;8.856;2023-07-31T05:59:48;18.50;99.90
6333;DHT22;3199;49.102;8.856;2023-07-31T06:02:13;18.90;99.90
6333;DHT22;3199;49.102;8.856;2023-07-31T06:04:39;19.40;99.90
6333;DHT22;3199;49.102;8.856;2023-07-31T06:07:05;19.50;99.90
6333;DHT22;3199;49.102;8.856;2023-07-31T06:09:30;19.60;99.90
6333;DHT22;3199;49.102;8.856;2023-07-31T06:11:56;19.50;99.90
6333;DHT22;3199;49.102;8.856;2023-07-31T06:14:22;19.50;99.90
6333;DHT22;3199;49.102;8.856;2023-07-31T06:16:47;19.30;99.90
6333;DHT22;3199;49.102;8.856;2023-07-31T06:19:13;19.20;99.90
6333;DHT22;3199;49.102;8.856;2023-07-31T06:21:38;19.20;99.90
6333;DHT22;3199;49.102;8.856;2023-07-31T06:24:05;19.20;99.90
6333;DHT22;3199;49.102;8.856;2023-07-31T06:26:31;19.10;99.90
6333;DHT22;3199;49.102;8.856;2023-07-31T06:28:56;19.20;99.90
6333;DHT22;3199;49.102;8.856;2023-07-31T06:31:22;19.20;99.90
6333;DHT22;3199;49.102;8.856;2023-07-31T06:33:51;19.20;99.90
6333;DHT22;3199;49.102;8.856;2023-07-31T06:36:17;19.30;99.90
6333;DHT22;3199;49.102;8.856;2023-07-31T06:38:43;19.50;99.90
6333;DHT22;3199;49.102;8.856;2023-07-31T06:41:09;19.60;99.90
6333;DHT22;3199;49.102;8.856;2023-07-31T06:43:36;19.80;99.70
6333;DHT22;3199;49.102;8.856;2023-07-31T06:46:07;20.00;99.50
6333;DHT22;3199;49.102;8.856;2023-07-31T06:48:33;20.10;99.20
6333;DHT22;3199;49.102;8.856;2023-07-31T06:51:00;20.30;99.30
6333;DHT22;3199;49.102;8.856;2023-07-31T06:53:26;20.40;98.60
6333;DHT22;3199;49.102;8.856;2023-07-31T06:55:51;20.30;98.00
6333;DHT22;3199;49.102;8.856;2023-07-31T06:58:17;20.30;98.60
6333;DHT22;3199;49.102;8.856;2023-07-31T07:00:43;20.20;98.40
6333;DHT22;3199;49.102;8.856;2023-07-31T07:03:08;20.20;98.70
6333;DHT22;3199;49.102;8.856;2023-07-31T07:05:34;20.10;98.70
6333;DHT22;3199;49.102;8.856;2023-07-31T07:08:00;20.10;98.90
6333;DHT22;3199;49.102;8.856;2023-07-31T07:10:25;20.10;99.40
6333;DHT22;3199;49.102;8.856;2023-07-31T07:12:51;20.00;99.10
6333;DHT22;3199;49.102;8.856;2023-07-31T07:15:16;20.00;99.40
6333;DHT22;3199;49.102;8.856;2023-07-31T07:17:42;20.00;99.70
6333;DHT22;3199;49.102;8.856;2023-07-31T07:20:08;20.00;99.80
6333;DHT22;3199;49.102;8.856;2023-07-31T07:22:33;20.10;99.80
6333;DHT22;3199;49.102;8.856;2023-07-31T07:24:59;20.30;99.30
6333;DHT22;3199;49.102;8.856;2023-07-31T07:27:24;20.40;99.40
6333;DHT22;3199;49.102;8.856;2023-07-31T07:29:50;20.60;99.50
6333;DHT22;3199;49.102;8.856;2023-07-31T07:32:17;20.70;99.10
6333;DHT22;3199;49.102;8.856;2023-07-31T07:34:43;20.70;98.70
6333;DHT22;3199;49.102;8.856;2023-07-31T07:37:09;21.00;98.50
6333;DHT22;3199;49.102;8.856;2023-07-31T07:39:34;21.10;98.40
6333;DHT22;3199;49.102;8.856;2023-07-31T07:42:00;21.20;98.40
6333;DHT22;3199;49.102;8.856;2023-07-31T07:44:25;21.40;97.90
6333;DHT22;3199;49.102;8.856;2023-07-31T07:46:52;21.50;98.00
6333;DHT22;3199;49.102;8.856;2023-07-31T07:49:17;21.90;98.50
6333;DHT22;3199;49.102;8.856;2023-07-31T07:51:43;22.30;97.10
6333;DHT22;3199;49.102;8.856;2023-07-31T07:54:09;22.50;96.40
6333;DHT22;3199;49.102;8.856;2023-07-31T07:56:34;22.70;96.40
6333;DHT22;3199;49.102;8.856;2023-07-31T07:59:01;22.70;95.30
6333;DHT22;3199;49.102;8.856;2023-07-31T08:01:27;22.60;95.60
6333;DHT22;3199;49.102;8.856;2023-07-31T08:03:52;22.40;94.60
6333;DHT22;3199;49.102;8.856;2023-07-31T08:06:18;22.40;95.00
6333;DHT22;3199;49.102;8.856;2023-07-31T08:08:44;22.30;95.40
6333;DHT22;3199;49.102;8.856;2023-07-31T08:11:09;22.20;95.60
6333;DHT22;3199;49.102;8.856;2023-07-31T08:13:35;22.20;95.40
6333;DHT22;3199;49.102;8.856;2023-07-31T08:16:02;22.10;95.30
6333;DHT22;3199;49.102;8.856;2023-07-31T08:18:28;22.10;95.00
6333;DHT22;3199;49.102;8.856;2023-07-31T08:20:53;21.90;94.90
6333;DHT22;3199;49.102;8.856;2023-07-31T08:23:19;21.70;94.80
6333;DHT22;3199;49.102;8.856;2023-07-31T08:25:44;21.70;95.50
6333;DHT22;3199;49.102;8.856;2023-07-31T08:28:10;21.60;95.50
6333;DHT22;3199;49.102;8.856;2023-07-31T08:30:35;21.50;95.40
6333;DHT22;3199;49.102;8.856;2023-07-31T08:33:01;21.50;95.60
6333;DHT22;3199;49.102;8.856;2023-07-31T08:35:28;21.50;95.90
6333;DHT22;3199;49.102;8.856;2023-07-31T08:37:54;21.50;96.00
6333;DHT22;3199;49.102;8.856;2023-07-31T08:40:19;21.60;96.00
6333;DHT22;3199;49.102;8.856;2023-07-31T08:42:48;21.50;95.80
6333;DHT22;3199;49.102;8.856;2023-07-31T08:45:18;21.50;95.50
6333;DHT22;3199;49.102;8.856;2023-07-31T08:47:48;21.50;96.00
6333;DHT22;3199;49.102;8.856;2023-07-31T08:50:19;21.50;96.10
6333;DHT22;3199;49.102;8.856;2023-07-31T08:52:46;21.60;96.20
6333;DHT22;3199;49.102;8.856;2023-07-31T08:55:13;21.80;96.40
6333;DHT22;3199;49.102;8.856;2023-07-31T08:57:39;21.90;95.90
6333;DHT22;3199;49.102;8.856;2023-07-31T09:00:06;22.00;95.60
6333;DHT22;3199;49.102;8.856;2023-07-31T09:02:38;22.00;95.20
6333;DHT22;3199;49.102;8.856;2023-07-31T09:05:06;22.00;95.50
6333;DHT22;3199;49.102;8.856;2023-07-31T09:07:34;22.20;95.00
6333;DHT22;3199;49.102;8.856;2023-07-31T09:10:00;22.40;95.20
6333;DHT22;3199;49.102;8.856;2023-07-31T09:12:26;22.50;94.60
6333;DHT22;3199;49.102;8.856;2023-07-31T09:14:51;22.60;93.90
6333;DHT22;3199;49.102;8.856;2023-07-31T09:17:29;22.60;93.90
6333;DHT22;3199;49.102;8.856;2023-07-31T09:19:55;22.60;93.80
6333;DHT22;3199;49.102;8.856;2023-07-31T09:22:32;22.60;93.30
6333;DHT22;3199;49.102;8.856;2023-07-31T09:27:57;22.90;93.20
6333;DHT22;3199;49.102;8.856;2023-07-31T09:30:23;23.10;92.40
6333;DHT22;3199;49.102;8.856;2023-07-31T09:32:49;23.30;92.40
6333;DHT22;3199;49.102;8.856;2023-07-31T09:35:20;23.80;92.00
6333;DHT22;3199;49.102;8.856;2023-07-31T09:37:53;24.20;91.40
6333;DHT22;3199;49.102;8.856;2023-07-31T09:40:34;24.40;90.50
6333;DHT22;3199;49.102;8.856;2023-07-31T09:43:01;24.80;91.00
6333;DHT22;3199;49.102;8.856;2023-07-31T09:45:27;25.10;90.50
6333;DHT22;3199;49.102;8.856;2023-07-31T09:47:53;25.10;88.20
6333;DHT22;3199;49.102;8.856;2023-07-31T09:50:24;25.30;87.00
6333;DHT22;3199;49.102;8.856;2023-07-31T09:52:51;25.00;85.80
6333;DHT22;3199;49.102;8.856;2023-07-31T09:55:18;24.90;87.80
6333;DHT22;3199;49.102;8.856;2023-07-31T09:57:49;24.90;87.40
6333;DHT22;3199;49.102;8.856;2023-07-31T10:00:16;25.10;88.70
6333;DHT22;3199;49.102;8.856;2023-07-31T10:02:45;25.60;86.40
6333;DHT22;3199;49.102;8.856;2023-07-31T10:05:14;25.80;83.40
6333;DHT22;3199;49.102;8.856;2023-07-31T10:07:43;26.00;84.20
6333;DHT22;3199;49.102;8.856;2023-07-31T10:10:11;26.20;83.00
6333;DHT22;3199;49.102;8.856;2023-07-31T10:12:38;26.60;81.50
6333;DHT22;3199;49.102;8.856;2023-07-31T10:15:04;26.80;78.60
6333;DHT22;3199;49.102;8.856;2023-07-31T10:17:30;26.50;78.50
6333;DHT22;3199;49.102;8.856;2023-07-31T10:19:59;26.40;79.60
6333;DHT22;3199;49.102;8.856;2023-07-31T10:22:26;26.30;79.20
6333;DHT22;3199;49.102;8.856;2023-07-31T10:24:52;26.00;78.80
6333;DHT22;3199;49.102;8.856;2023-07-31T10:27:19;25.90;79.40
6333;DHT22;3199;49.102;8.856;2023-07-31T10:29:45;25.50;77.90
6333;DHT22;3199;49.102;8.856;2023-07-31T10:32:13;25.40;80.00
6333;DHT22;3199;49.102;8.856;2023-07-31T10:34:40;25.20;80.50
6333;DHT22;3199;49.102;8.856;2023-07-31T10:37:30;25.50;81.50
6333;DHT22;3199;49.102;8.856;2023-07-31T10:42:35;25.90;79.50
6333;DHT22;3199;49.102;8.856;2023-07-31T10:45:06;25.70;78.80
6333;DHT22;3199;49.102;8.856;2023-07-31T10:47:45;25.20;79.20
6333;DHT22;3199;49.102;8.856;2023-07-31T10:50:19;25.00;80.80
6333;DHT22;3199;49.102;8.856;2023-07-31T10:52:49;24.90;81.70
6333;DHT22;3199;49.102;8.856;2023-07-31T10:55:40;25.00;81.30
6333;DHT22;3199;49.102;8.856;2023-07-31T10:58:09;25.10;81.40
6333;DHT22;3199;49.102;8.856;2023-07-31T11:00:39;25.10;81.20
6333;DHT22;3199;49.102;8.856;2023-07-31T11:03:19;24.90;80.80
6333;DHT22;3199;49.102;8.856;2023-07-31T11:05:47;24.80;81.00
6333;DHT22;3199;49.102;8.856;2023-07-31T11:10:44;25.40;84.50
6333;DHT22;3199;49.102;8.856;2023-07-31T11:13:11;25.70;82.60
6333;DHT22;3199;49.102;8.856;2023-07-31T11:15:36;26.10;81.50
6333;DHT22;3199;49.102;8.856;2023-07-31T11:18:02;25.80;78.90
6333;DHT22;3199;49.102;8.856;2023-07-31T11:20:32;25.40;79.40
6333;DHT22;3199;49.102;8.856;2023-07-31T11:23:00;24.90;80.50
6333;DHT22;3199;49.102;8.856;2023-07-31T11:25:26;24.70;80.60
6333;DHT22;3199;49.102;8.856;2023-07-31T11:27:51;24.60;82.60
6333;DHT22;3199;49.102;8.856;2023-07-31T11:30:19;24.70;83.30
6333;DHT22;3199;49.102;8.856;2023-07-31T11:32:45;24.70;83.50
6333;DHT22;3199;49.102;8.856;2023-07-31T11:35:14;24.90;84.20
6333;DHT22;3199;49.102;8.856;2023-07-31T11:37:40;24.80;82.70
6333;DHT22;3199;49.102;8.856;2023-07-31T11:40:07;24.60;82.50
6333;DHT22;3199;49.102;8.856;2023-07-31T11:42:36;24.50;83.50
6333;DHT22;3199;49.102;8.856;2023-07-31T11:45:06;24.60;84.70
6333;DHT22;3199;49.102;8.856;2023-07-31T11:47:33;24.40;83.00
6333;DHT22;3199;49.102;8.856;2023-07-31T11:50:00;24.30;83.50
6333;DHT22;3199;49.102;8.856;2023-07-31T11:52:28;24.10;84.90
6333;DHT22;3199;49.102;8.856;2023-07-31T11:54:55;24.10;84.40
6333;DHT22;3199;49.102;8.856;2023-07-31T11:57:21;24.20;85.10
6333;DHT22;3199;49.102;8.856;2023-07-31T11:59:48;24.20;85.70
6333;DHT22;3199;49.102;8.856;2023-07-31T12:02:14;24.00;85.50
6333;DHT22;3199;49.102;8.856;2023-07-31T12:04:40;24.00;85.40
6333;DHT22;3199;49.102;8.856;2023-07-31T12:07:06;23.80;84.90
6333;DHT22;3199;49.102;8.856;2023-07-31T12:09:31;23.90;85.20
6333;DHT22;3199;49.102;8.856;2023-07-31T12:11:57;24.00;84.40
6333;DHT22;3199;49.102;8.856;2023-07-31T12:14:27;24.20;85.60
6333;DHT22;3199;49.102;8.856;2023-07-31T12:17:00;24.30;85.60
6333;DHT22;3199;49.102;8.856;2023-07-31T12:19:26;24.50;85.50
6333;DHT22;3199;49.102;8.856;2023-07-31T12:21:58;24.50;83.30
6333;DHT22;3199;49.102;8.856;2023-07-31T12:24:25;24.60;84.40
6333;DHT22;3199;49.102;8.856;2023-07-31T12:26:51;24.60;84.70
6333;DHT22;3199;49.102;8.856;2023-07-31T12:29:17;24.80;83.10
6333;DHT22;3199;49.102;8.856;2023-07-31T12:31:43;25.20;84.60
6333;DHT22;3199;49.102;8.856;2023-07-31T12:34:16;25.20;81.60
6333;DHT22;3199;49.102;8.856;2023-07-31T12:36:43;25.20;81.10
6333;DHT22;3199;49.102;8.856;2023-07-31T12:39:09;25.20;81.60
6333;DHT22;3199;49.102;8.856;2023-07-31T12:41:35;25.10;82.00
6333;DHT22;3199;49.102;8.856;2023-07-31T12:44:00;25.10;81.50
6333;DHT22;3199;49.102;8.856;2023-07-31T12:46:26;25.00;82.30
6333;DHT22;3199;49.102;8.856;2023-07-31T12:48:51;25.10;83.10
6333;DHT22;3199;49.102;8.856;2023-07-31T12:51:17;25.30;82.30
6333;DHT22;3199;49.102;8.856;2023-07-31T12:53:42;25.40;83.40
6333;DHT22;3199;49.102;8.856;2023-07-31T12:56:08;25.50;82.00
6333;DHT22;3199;49.102;8.856;2023-07-31T12:58:34;25.50;80.90
6333;DHT22;3199;49.102;8.856;2023-07-31T13:00:59;25.70;80.80
6333;DHT22;3199;49.102;8.856;2023-07-31T13:03:25;25.70;80.80
6333;DHT22;3199;49.102;8.856;2023-07-31T13:05:50;25.70;80.60
6333;DHT22;3199;49.102;8.856;2023-07-31T13:08:17;25.50;81.30
6333;DHT22;3199;49.102;8.856;2023-07-31T13:10:43;25.30;80.20
6333;DHT22;3199;49.102;8.856;2023-07-31T13:13:09;25.20;81.10
6333;DHT22;3199;49.102;8.856;2023-07-31T13:15:35;25.10;82.30
6333;DHT22;3199;49.102;8.856;2023-07-31T13:18:01;25.10;83.10
6333;DHT22;3199;49.102;8.856;2023-07-31T13:20:26;25.00;82.60
6333;DHT22;3199;49.102;8.856;2023-07-31T13:22:52;25.00;83.70
6333;DHT22;3199;49.102;8.856;2023-07-31T13:25:17;24.90;83.90
6333;DHT22;3199;49.102;8.856;2023-07-31T13:27:43;24.80;84.40
6333;DHT22;3199;49.102;8.856;2023-07-31T13:30:08;24.80;83.80
6333;DHT22;3199;49.102;8.856;2023-07-31T13:32:34;24.60;82.90
6333;DHT22;3199;49.102;8.856;2023-07-31T13:35:07;24.60;83.50
6333;DHT22;3199;49.102;8.856;2023-07-31T13:37:32;24.50;83.50
6333;DHT22;3199;49.102;8.856;2023-07-31T13:39:58;24.50;84.20
6333;DHT22;3199;49.102;8.856;2023-07-31T13:42:23;24.60;85.10
6333;DHT22;3199;49.102;8.856;2023-07-31T13:44:49;24.70;84.80
6333;DHT22;3199;49.102;8.856;2023-07-31T13:47:14;24.70;84.60
6333;DHT22;3199;49.102;8.856;2023-07-31T13:49:40;24.80;86.60
6333;DHT22;3199;49.102;8.856;2023-07-31T13:52:07;24.90;86.40
6333;DHT22;3199;49.102;8.856;2023-07-31T13:54:32;24.90;84.60
6333;DHT22;3199;49.102;8.856;2023-07-31T13:56:58;24.80;83.40
6333;DHT22;3199;49.102;8.856;2023-07-31T13:59:23;24.70;84.80
6333;DHT22;3199;49.102;8.856;2023-07-31T14:01:50;24.60;85.20
6333;DHT22;3199;49.102;8.856;2023-07-31T14:04:15;24.40;84.70
6333;DHT22;3199;49.102;8.856;2023-07-31T14:06:42;24.30;84.80
6333;DHT22;3199;49.102;8.856;2023-07-31T14:09:08;24.20;85.60
6333;DHT22;3199;49.102;8.856;2023-07-31T14:11:34;24.10;86.10
6333;DHT22;3199;49.102;8.856;2023-07-31T14:13:59;24.00;85.50
6333;DHT22;3199;49.102;8.856;2023-07-31T14:16:27;24.00;85.70
6333;DHT22;3199;49.102;8.856;2023-07-31T14:18:52;24.10;87.20
6333;DHT22;3199;49.102;8.856;2023-07-31T14:21:19;23.90;85.70
6333;DHT22;3199;49.102;8.856;2023-07-31T14:23:44;23.90;86.30
6333;DHT22;3199;49.102;8.856;2023-07-31T14:26:10;23.80;87.30
6333;DHT22;3199;49.102;8.856;2023-07-31T14:28:39;23.90;87.60
6333;DHT22;3199;49.102;8.856;2023-07-31T14:31:05;23.90;88.80
6333;DHT22;3199;49.102;8.856;2023-07-31T14:33:30;23.80;87.90
6333;DHT22;3199;49.102;8.856;2023-07-31T14:35:56;23.70;88.20
6333;DHT22;3199;49.102;8.856;2023-07-31T14:38:21;23.60;88.80
6333;DHT22;3199;49.102;8.856;2023-07-31T14:40:47;23.40;88.10
6333;DHT22;3199;49.102;8.856;2023-07-31T14:43:12;23.30;89.00
6333;DHT22;3199;49.102;8.856;2023-07-31T14:45:38;23.30;90.00
6333;DHT22;3199;49.102;8.856;2023-07-31T14:48:04;23.20;89.90
6333;DHT22;3199;49.102;8.856;2023-07-31T14:50:29;23.20;90.20
6333;DHT22;3199;49.102;8.856;2023-07-31T14:52:55;23.00;90.00
6333;DHT22;3199;49.102;8.856;2023-07-31T14:55:20;23.00;90.40
6333;DHT22;3199;49.102;8.856;2023-07-31T14:57:46;23.00;90.70
6333;DHT22;3199;49.102;8.856;2023-07-31T15:00:12;23.00;90.90
6333;DHT22;3199;49.102;8.856;2023-07-31T15:02:38;23.10;90.50
6333;DHT22;3199;49.102;8.856;2023-07-31T15:05:04;23.10;90.90
6333;DHT22;3199;49.102;8.856;2023-07-31T15:07:30;23.20;90.80
6333;DHT22;3199;49.102;8.856;2023-07-31T15:09:55;23.30;90.80
6333;DHT22;3199;49.102;8.856;2023-07-31T15:12:21;23.40;90.60
6333;DHT22;3199;49.102;8.856;2023-07-31T15:14:48;23.60;90.40
6333;DHT22;3199;49.102;8.856;2023-07-31T15:17:14;23.80;90.80
6333;DHT22;3199;49.102;8.856;2023-07-31T15:19:39;24.00;90.40
6333;DHT22;3199;49.102;8.856;2023-07-31T15:22:05;24.00;89.40
6333;DHT22;3199;49.102;8.856;2023-07-31T15:24:31;24.00;89.50
6333;DHT22;3199;49.102;8.856;2023-07-31T15:26:56;23.80;90.00
6333;DHT22;3199;49.102;8.856;2023-07-31T15:29:22;23.80;89.90
6333;DHT22;3199;49.102;8.856;2023-07-31T15:31:48;23.70;89.40
6333;DHT22;3199;49.102;8.856;2023-07-31T15:34:14;23.60;90.00
6333;DHT22;3199;49.102;8.856;2023-07-31T15:36:41;23.70;90.50
6333;DHT22;3199;49.102;8.856;2023-07-31T15:39:06;23.70;90.00
6333;DHT22;3199;49.102;8.856;2023-07-31T15:41:36;23.70;90.10
6333;DHT22;3199;49.102;8.856;2023-07-31T15:44:02;23.80;90.00
6333;DHT22;3199;49.102;8.856;2023-07-31T15:46:27;23.90;90.50
6333;DHT22;3199;49.102;8.856;2023-07-31T15:48:53;24.00;89.10
6333;DHT22;3199;49.102;8.856;2023-07-31T15:51:22;24.10;90.20
6333;DHT22;3199;49.102;8.856;2023-07-31T15:53:48;24.10;89.60
6333;DHT22;3199;49.102;8.856;2023-07-31T15:56:13;24.20;90.00
6333;DHT22;3199;49.102;8.856;2023-07-31T15:58:39;24.40;90.10
6333;DHT22;3199;49.102;8.856;2023-07-31T16:01:04;24.30;88.90
6333;DHT22;3199;49.102;8.856;2023-07-31T16:03:30;24.20;89.60
6333;DHT22;3199;49.102;8.856;2023-07-31T16:05:55;24.10;90.20
6333;DHT22;3199;49.102;8.856;2023-07-31T16:08:21;24.10;90.50
6333;DHT22;3199;49.102;8.856;2023-07-31T16:10:46;24.10;90.40
6333;DHT22;3199;49.102;8.856;2023-07-31T16:13:12;24.10;90.60